
Distance (Route):
Temperature : -34.8°C
Humidity : 53.6%
Pressure : 0hPa| Receiver | Frames | First received | Last received |
|---|---|---|---|
| LZ4TU-5 | 122 | 2026-08-30 11:08:02 | 2026-08-30 12:59:25 |
| Receiver | Date | Latitude | Longitude | Direction | Speed | Altitude | Climb | Temperature | Humidity | Pressure | Voltage | Killtimer | Uptime | BKT | XDATA |
|---|---|---|---|---|---|---|---|---|---|---|---|---|---|---|---|
| LZ4TU-5 | 2026-08-30 12:59:25 | -16.14030 | -35.25903 | 0° | 0km/h | 1640m | 0.0m/s | -34.8°C | 53.6% | 0hPa | 0V | 00:00:00 | 00:00:00 | 00:00:00 | |
| LZ4TU-5 | 2026-08-30 12:59:20 | -16.14030 | -35.25903 | 0° | 0km/h | 1640m | 0.0m/s | -35.4°C | 57.9% | 0hPa | 0V | 00:00:00 | 00:00:00 | 00:00:00 | |
| LZ4TU-5 | 2026-08-30 12:57:43 | -16.14030 | -35.25903 | 0° | 0km/h | 1640m | 0.0m/s | -44.9°C | 55.8% | 0hPa | 0V | 00:00:00 | 00:00:00 | 00:00:00 | |
| LZ4TU-5 | 2026-08-30 12:57:38 | -16.14030 | -35.25903 | 0° | 0km/h | 1640m | 0.0m/s | -45.4°C | 59.8% | 0hPa | 0V | 00:00:00 | 00:00:00 | 00:00:00 | |
| LZ4TU-5 | 2026-08-30 12:50:39 | -16.14030 | -35.25903 | 0° | 0km/h | 1640m | 0.0m/s | -59.0°C | 4.6% | 0hPa | 0V | 00:00:00 | 00:00:00 | 00:00:00 | |
| LZ4TU-5 | 2026-08-30 12:50:34 | -16.14030 | -35.25903 | 0° | 0km/h | 1640m | 0.0m/s | -58.3°C | 4.3% | 0hPa | 0V | 00:00:00 | 00:00:00 | 00:00:00 | |
| LZ4TU-5 | 2026-08-30 12:48:29 | -16.14030 | -35.25903 | 0° | 0km/h | 1640m | 0.0m/s | -55.5°C | 3.6% | 0hPa | 0V | 00:00:00 | 00:00:00 | 00:00:00 | |
| LZ4TU-5 | 2026-08-30 12:48:25 | -16.14030 | -35.25903 | 0° | 0km/h | 1640m | 0.0m/s | -55.7°C | 3.7% | 0hPa | 0V | 00:00:00 | 00:00:00 | 00:00:00 | |
| LZ4TU-5 | 2026-08-30 12:46:09 | -16.14030 | -35.25903 | 0° | 0km/h | 1640m | 0.0m/s | -56.1°C | 3.9% | 0hPa | 0V | 00:00:00 | 00:00:00 | 00:00:00 | |
| LZ4TU-5 | 2026-08-30 12:46:04 | -16.14030 | -35.25903 | 0° | 0km/h | 1640m | 0.0m/s | -55.4°C | 3.7% | 0hPa | 0V | 00:00:00 | 00:00:00 | 00:00:00 | |
| LZ4TU-5 | 2026-08-30 12:43:58 | -16.14030 | -35.25903 | 0° | 0km/h | 1640m | 0.0m/s | -51.8°C | 3.1% | 0hPa | 0V | 00:00:00 | 00:00:00 | 00:00:00 | |
| LZ4TU-5 | 2026-08-30 12:43:53 | -16.62453 | -35.58223 | 0° | 0km/h | 1737m | 0.0m/s | -52.0°C | 3.7% | 0hPa | 0V | 00:00:00 | 00:00:00 | 00:00:00 | |
| LZ4TU-5 | 2026-08-30 12:41:42 | -2.19114 | -53.40367 | 0° | 0km/h | 31m | 0.0m/s | -46.0°C | 2.8% | 0hPa | 0V | 00:00:00 | 00:00:00 | 00:00:00 | |
| LZ4TU-5 | 2026-08-30 12:41:37 | -10.15776 | -50.73754 | 0° | 0km/h | 660m | 0.0m/s | -46.1°C | 1.7% | 0hPa | 0V | 00:00:00 | 00:00:00 | 00:00:00 | |
| LZ4TU-5 | 2026-08-30 12:39:07 | -21.29917 | -83.02711 | 0° | 0km/h | 2801m | 0.0m/s | -49.7°C | 2.1% | 0hPa | 0V | 00:00:00 | 00:00:00 | 00:00:00 | |
| LZ4TU-5 | 2026-08-30 12:39:02 | -39.54165 | -49.02425 | 0° | 0km/h | 8624m | 0.0m/s | -50.1°C | 1.5% | 0hPa | 0V | 00:00:00 | 00:00:00 | 00:00:00 | |
| LZ4TU-5 | 2026-08-30 12:37:09 | -39.54165 | -49.02425 | 0° | 0km/h | 8624m | 0.0m/s | -52.3°C | 1.8% | 0hPa | 0V | 00:00:00 | 00:00:00 | 00:00:00 | |
| LZ4TU-5 | 2026-08-30 12:37:04 | -39.54165 | -49.02425 | 0° | 0km/h | 8624m | 0.0m/s | -52.0°C | 1.7% | 0hPa | 0V | 00:00:00 | 00:00:00 | 00:00:00 | |
| LZ4TU-5 | 2026-08-30 12:36:59 | -39.54165 | -49.02425 | 0° | 0km/h | 8624m | 0.0m/s | -51.9°C | 1.8% | 0hPa | 0V | 00:00:00 | 00:00:00 | 00:00:00 | |
| LZ4TU-5 | 2026-08-30 12:36:54 | -39.54165 | -49.02425 | 0° | 0km/h | 8624m | 0.0m/s | -52.1°C | 1.8% | 0hPa | 0V | 00:00:00 | 00:00:00 | 00:00:00 | |
| LZ4TU-5 | 2026-08-30 12:36:50 | -39.54165 | -49.02425 | 0° | 0km/h | 8624m | 0.0m/s | -51.9°C | 1.7% | 0hPa | 0V | 00:00:00 | 00:00:00 | 00:00:00 | |
| LZ4TU-5 | 2026-08-30 12:36:45 | -26.49272 | -31.99533 | 0° | 0km/h | 4227m | 0.0m/s | -51.7°C | 2.5% | 0hPa | 0V | 00:00:00 | 00:00:00 | 00:00:00 | |
| LZ4TU-5 | 2026-08-30 12:34:39 | -26.49272 | -31.99533 | 0° | 0km/h | 4227m | 0.0m/s | -51.7°C | 2.4% | 0hPa | 0V | 00:00:00 | 00:00:00 | 00:00:00 | |
| LZ4TU-5 | 2026-08-30 12:30:46 | -12.02963 | -77.05569 | 0° | 0km/h | 927m | 0.0m/s | -52.7°C | 3.4% | 0hPa | 0V | 00:00:00 | 00:00:00 | 00:00:00 | |
| LZ4TU-5 | 2026-08-30 12:30:42 | -12.02963 | -77.05569 | 0° | 0km/h | 927m | 0.0m/s | -52.9°C | 3.3% | 0hPa | 0V | 00:00:00 | 00:00:00 | 00:00:00 | |
| LZ4TU-5 | 2026-08-30 12:28:23 | -12.03866 | -77.05909 | 11° | 199km/h | 1480m | -1.3m/s | -54.9°C | 3.7% | 0hPa | 0V | 00:00:00 | 00:00:00 | 00:00:00 | |
| LZ4TU-5 | 2026-08-30 12:28:19 | -12.04086 | -77.05916 | 358° | 197km/h | 1586m | 3.3m/s | -54.8°C | 3.8% | 0hPa | 0V | 00:00:00 | 00:00:00 | 00:00:00 | |
| LZ4TU-5 | 2026-08-30 12:26:31 | -12.03788 | -77.05919 | 11° | 199km/h | 1084m | -0.7m/s | -55.0°C | 3.9% | 0hPa | 0V | 00:00:00 | 00:00:00 | 00:00:00 | |
| LZ4TU-5 | 2026-08-30 12:26:26 | -12.04040 | -77.05929 | 355° | 199km/h | 1082m | 0.4m/s | -54.9°C | 3.8% | 0hPa | 0V | 00:00:00 | 00:00:00 | 00:00:00 | |
| LZ4TU-5 | 2026-08-30 12:24:30 | -12.04187 | -77.05906 | 342° | 203km/h | 1057m | -4.8m/s | -55.4°C | 3.9% | 0hPa | 0V | 00:00:00 | 00:00:00 | 00:00:00 | |
| LZ4TU-5 | 2026-08-30 12:24:26 | -12.04441 | -77.05848 | 312° | 199km/h | 1001m | -6.5m/s | -55.4°C | 3.9% | 0hPa | 0V | 00:00:00 | 00:00:00 | 00:00:00 | |
| LZ4TU-5 | 2026-08-30 12:24:22 | -12.04573 | -77.05692 | 312° | 199km/h | 1027m | -6.5m/s | -55.4°C | 3.9% | 0hPa | 0V | 00:00:00 | 00:00:00 | 00:00:00 | |
| LZ4TU-5 | 2026-08-30 12:24:17 | -12.04726 | -77.05487 | 302° | 201km/h | 1051m | -3.9m/s | -55.4°C | 3.9% | 0hPa | 0V | 00:00:00 | 00:00:00 | 00:00:00 | |
| LZ4TU-5 | 2026-08-30 12:24:12 | -12.04825 | -77.05250 | 286° | 199km/h | 1080m | -2.0m/s | -55.2°C | 3.3% | 0hPa | 0V | 00:00:00 | 00:00:00 | 00:00:00 | |
| LZ4TU-5 | 2026-08-30 12:22:11 | -21.67564 | -54.77719 | 0° | 0km/h | 2896m | 0.0m/s | -55.6°C | 3.3% | 0hPa | 0V | 00:00:00 | 00:00:00 | 00:00:00 | |
| LZ4TU-5 | 2026-08-30 12:20:24 | -20.90425 | -54.38562 | 0° | 0km/h | 2703m | 0.0m/s | -56.6°C | 3.3% | 0hPa | 0V | 00:00:00 | 00:00:00 | 00:00:00 | |
| LZ4TU-5 | 2026-08-30 12:20:20 | 14.28917 | -42.67767 | 0° | 0km/h | 1292m | 0.0m/s | -56.5°C | 4.0% | 0hPa | 0V | 00:00:00 | 00:00:00 | 00:00:00 | |
| LZ4TU-5 | 2026-08-30 12:18:30 | 14.28917 | -42.67767 | 0° | 0km/h | 1292m | 0.0m/s | -56.0°C | 3.9% | 0hPa | 0V | 00:00:00 | 00:00:00 | 00:00:00 | |
| LZ4TU-5 | 2026-08-30 12:18:25 | 14.28917 | -42.67767 | 0° | 0km/h | 1292m | 0.0m/s | -56.0°C | 3.7% | 0hPa | 0V | 00:00:00 | 00:00:00 | 00:00:00 | |
| LZ4TU-5 | 2026-08-30 12:16:37 | 14.28917 | -42.67767 | 0° | 0km/h | 1292m | 0.0m/s | -54.9°C | 3.8% | 0hPa | 0V | 00:00:00 | 00:00:00 | 00:00:00 | |
| LZ4TU-5 | 2026-08-30 12:16:32 | 14.28917 | -42.67767 | 0° | 0km/h | 1292m | 0.0m/s | -54.9°C | 3.7% | 0hPa | 0V | 00:00:00 | 00:00:00 | 00:00:00 | |
| LZ4TU-5 | 2026-08-30 12:14:41 | 13.85145 | -41.93732 | 0° | 0km/h | 1216m | 0.0m/s | -57.5°C | 4.7% | 0hPa | 0V | 00:00:00 | 00:00:00 | 00:00:00 | |
| LZ4TU-5 | 2026-08-30 12:14:36 | 3.37875 | -43.24854 | 0° | 0km/h | 74m | 0.0m/s | -57.5°C | 2.8% | 0hPa | 0V | 00:00:00 | 00:00:00 | 00:00:00 | |
| LZ4TU-5 | 2026-08-30 12:12:54 | -31.62474 | -23.08506 | 0° | 0km/h | 5844m | 0.0m/s | -57.8°C | 3.0% | 0hPa | 0V | 00:00:00 | 00:00:00 | 00:00:00 | |
| LZ4TU-5 | 2026-08-30 12:12:49 | -31.60262 | -23.10725 | 0° | 0km/h | 5837m | 0.0m/s | -57.7°C | 4.4% | 0hPa | 0V | 00:00:00 | 00:00:00 | 00:00:00 | |
| LZ4TU-5 | 2026-08-30 12:11:04 | -12.87294 | -27.34619 | 0° | 0km/h | 1053m | 0.0m/s | -56.9°C | 4.6% | 0hPa | 0V | 00:00:00 | 00:00:00 | 00:00:00 | |
| LZ4TU-5 | 2026-08-30 12:10:58 | 12.21701 | -54.46571 | 0° | 0km/h | 950m | 0.0m/s | -56.9°C | 0% | 0hPa | 0V | 00:00:00 | 00:00:00 | 00:00:00 | |
| LZ4TU-5 | 2026-08-30 12:05:40 | -12.04096 | -77.04094 | 191° | 199km/h | 1024m | 0.1m/s | -56.0°C | 4.2% | 0hPa | 0V | 00:00:00 | 00:00:00 | 00:00:00 | |
| LZ4TU-5 | 2026-08-30 12:02:02 | 44.39130 | 26.53399 | 0° | 0km/h | 14100m | 0.0m/s | -57.7°C | 2.7% | 0hPa | 0V | 00:00:00 | 00:00:00 | 00:00:00 | |
| LZ4TU-5 | 2026-08-30 12:01:57 | 44.39130 | 26.53399 | 0° | 0km/h | 14100m | 0.0m/s | -58.1°C | 2.8% | 0hPa | 0V | 00:00:00 | 00:00:00 | 00:00:00 | |
| LZ4TU-5 | 2026-08-30 11:59:59 | 44.39130 | 26.53399 | 0° | 0km/h | 14100m | 0.0m/s | -60.3°C | 5.8% | 0hPa | 0V | 00:00:00 | 00:00:00 | 00:00:00 | |
| LZ4TU-5 | 2026-08-30 11:59:54 | 44.39130 | 26.53399 | 0° | 0km/h | 14100m | 0.0m/s | -60.1°C | 6.1% | 0hPa | 0V | 00:00:00 | 00:00:00 | 00:00:00 | |
| LZ4TU-5 | 2026-08-30 11:58:09 | 44.39176 | 26.53306 | 131° | 47km/h | 14044m | 4.8m/s | -59.5°C | 9.6% | 0hPa | 0V | 00:00:00 | 00:00:00 | 00:00:00 | |
| LZ4TU-5 | 2026-08-30 11:58:05 | 44.39214 | 26.53260 | 130° | 47km/h | 14035m | 4.3m/s | -59.5°C | 0% | 0hPa | 0V | 00:00:00 | 00:00:00 | 00:00:00 | |
| LZ4TU-5 | 2026-08-30 11:56:22 | 44.39510 | 26.51664 | 113° | 42km/h | 13587m | 3.8m/s | -58.6°C | 11.1% | 0hPa | 0V | 00:00:00 | 00:00:00 | 00:00:00 | |
| LZ4TU-5 | 2026-08-30 11:56:18 | 44.39529 | 26.51606 | 115° | 47km/h | 13571m | 4.6m/s | -58.5°C | 11.3% | 0hPa | 0V | 00:00:00 | 00:00:00 | 00:00:00 | |
| LZ4TU-5 | 2026-08-30 11:54:33 | 44.40220 | 26.49911 | 123° | 58km/h | 13129m | 4.7m/s | -58.2°C | 13.2% | 0hPa | 0V | 00:00:00 | 00:00:00 | 00:00:00 | |
| LZ4TU-5 | 2026-08-30 11:54:28 | 44.40256 | 26.49825 | 120° | 55km/h | 13109m | 4.5m/s | -58.3°C | 13.9% | 0hPa | 0V | 00:00:00 | 00:00:00 | 00:00:00 | |
| LZ4TU-5 | 2026-08-30 11:52:46 | 44.41044 | 26.48360 | 129° | 58km/h | 12671m | 3.7m/s | -58.3°C | 32.8% | 0hPa | 0V | 00:00:00 | 00:00:00 | 00:00:00 | |
| LZ4TU-5 | 2026-08-30 11:52:41 | 44.41092 | 26.48276 | 129° | 62km/h | 12650m | 4.9m/s | -58.2°C | 33.5% | 0hPa | 0V | 00:00:00 | 00:00:00 | 00:00:00 | |
| LZ4TU-5 | 2026-08-30 11:51:00 | 44.42136 | 26.46667 | 136° | 58km/h | 12224m | 5.0m/s | -56.4°C | 36.0% | 0hPa | 0V | 00:00:00 | 00:00:00 | 00:00:00 | |
| LZ4TU-5 | 2026-08-30 11:50:55 | 44.42190 | 26.46591 | 136° | 62km/h | 12202m | 4.2m/s | -56.2°C | 36.4% | 0hPa | 0V | 00:00:00 | 00:00:00 | 00:00:00 | |
| LZ4TU-5 | 2026-08-30 11:48:28 | 44.43821 | 26.44434 | 135° | 53km/h | 11602m | 5.0m/s | -52.5°C | 31.9% | 0hPa | 0V | 00:00:00 | 00:00:00 | 00:00:00 | |
| LZ4TU-5 | 2026-08-30 11:48:23 | 44.43868 | 26.44362 | 134° | 55km/h | 11580m | 3.8m/s | -52.3°C | 32.9% | 0hPa | 0V | 00:00:00 | 00:00:00 | 00:00:00 | |
| LZ4TU-5 | 2026-08-30 11:46:45 | 44.45007 | 26.42871 | 139° | 66km/h | 11172m | 3.3m/s | -49.9°C | 46.0% | 0hPa | 0V | 00:00:00 | 00:00:00 | 00:00:00 | |
| LZ4TU-5 | 2026-08-30 11:46:40 | 44.45068 | 26.42793 | 140° | 66km/h | 11152m | 4.8m/s | -49.6°C | 45.0% | 0hPa | 0V | 00:00:00 | 00:00:00 | 00:00:00 | |
| LZ4TU-5 | 2026-08-30 11:44:57 | 44.46326 | 26.41178 | 138° | 66km/h | 10728m | 3.4m/s | -47.0°C | 35.5% | 0hPa | 0V | 00:00:00 | 00:00:00 | 00:00:00 | |
| LZ4TU-5 | 2026-08-30 11:43:18 | 44.47151 | 26.39788 | 115° | 38km/h | 10289m | 5.0m/s | -43.7°C | 60.7% | 0hPa | 0V | 00:00:00 | 00:00:00 | 00:00:00 | |
| LZ4TU-5 | 2026-08-30 11:43:13 | 44.47175 | 26.39730 | 124° | 40km/h | 10269m | 4.2m/s | -43.5°C | 59.8% | 0hPa | 0V | 00:00:00 | 00:00:00 | 00:00:00 | |
| LZ4TU-5 | 2026-08-30 11:41:34 | 44.47616 | 26.38565 | 113° | 38km/h | 9848m | 5.1m/s | -39.8°C | 51.3% | 0hPa | 0V | 00:00:00 | 00:00:00 | 00:00:00 | |
| LZ4TU-5 | 2026-08-30 11:41:30 | 44.47630 | 26.38516 | 114° | 37km/h | 9831m | 4.9m/s | -39.7°C | 51.7% | 0hPa | 0V | 00:00:00 | 00:00:00 | 00:00:00 | |
| LZ4TU-5 | 2026-08-30 11:39:51 | 44.48097 | 26.37250 | 125° | 40km/h | 9425m | 4.0m/s | -36.4°C | 38.8% | 0hPa | 0V | 00:00:00 | 00:00:00 | 00:00:00 | |
| LZ4TU-5 | 2026-08-30 11:39:46 | 44.48126 | 26.37193 | 127° | 40km/h | 9407m | 4.0m/s | -36.1°C | 37.7% | 0hPa | 0V | 00:00:00 | 00:00:00 | 00:00:00 | |
| LZ4TU-5 | 2026-08-30 11:38:09 | 44.48579 | 26.36156 | 116° | 33km/h | 9024m | 3.7m/s | -32.6°C | 30.0% | 0hPa | 0V | 00:00:00 | 00:00:00 | 00:00:00 | |
| LZ4TU-5 | 2026-08-30 11:38:04 | 44.48596 | 26.36106 | 114° | 31km/h | 9005m | 3.4m/s | -32.4°C | 28.2% | 0hPa | 0V | 00:00:00 | 00:00:00 | 00:00:00 | |
| LZ4TU-5 | 2026-08-30 11:36:27 | 44.48864 | 26.34832 | 97° | 40km/h | 8626m | 4.1m/s | -29.5°C | 15.4% | 0hPa | 0V | 00:00:00 | 00:00:00 | 00:00:00 | |
| LZ4TU-5 | 2026-08-30 11:36:22 | 44.48870 | 26.34761 | 100° | 40km/h | 8605m | 3.6m/s | -29.3°C | 15.6% | 0hPa | 0V | 00:00:00 | 00:00:00 | 00:00:00 | |
| LZ4TU-5 | 2026-08-30 11:34:46 | 44.48936 | 26.33451 | 94° | 38km/h | 8231m | 3.2m/s | -26.3°C | 8.2% | 0hPa | 0V | 00:00:00 | 00:00:00 | 00:00:00 | |
| LZ4TU-5 | 2026-08-30 11:34:41 | 44.48938 | 26.33384 | 92° | 38km/h | 8213m | 4.3m/s | -26.3°C | 0% | 0hPa | 0V | 00:00:00 | 00:00:00 | 00:00:00 | |
| LZ4TU-5 | 2026-08-30 11:33:14 | 44.48851 | 26.32433 | 71° | 26km/h | 7876m | 3.6m/s | -23.1°C | 7.6% | 0hPa | 0V | 00:00:00 | 00:00:00 | 00:00:00 | |
| LZ4TU-5 | 2026-08-30 11:33:09 | 44.48840 | 26.32387 | 78° | 29km/h | 7858m | 2.7m/s | -22.9°C | 7.5% | 0hPa | 0V | 00:00:00 | 00:00:00 | 00:00:00 | |
| LZ4TU-5 | 2026-08-30 11:31:58 | 44.48694 | 26.31654 | 80° | 29km/h | 7597m | 3.5m/s | -20.6°C | 5.2% | 0hPa | 0V | 00:00:00 | 00:00:00 | 00:00:00 | |
| LZ4TU-5 | 2026-08-30 11:31:52 | 44.48685 | 26.31599 | 79° | 31km/h | 7580m | 3.8m/s | -20.5°C | 5.0% | 0hPa | 0V | 00:00:00 | 00:00:00 | 00:00:00 | |
| LZ4TU-5 | 2026-08-30 11:30:33 | 44.48627 | 26.30777 | 90° | 29km/h | 7288m | 4.7m/s | -18.3°C | 3.5% | 0hPa | 0V | 00:00:00 | 00:00:00 | 00:00:00 | |
| LZ4TU-5 | 2026-08-30 11:30:29 | 44.48626 | 26.30727 | 86° | 29km/h | 7269m | 3.7m/s | -18.1°C | 3.4% | 0hPa | 0V | 00:00:00 | 00:00:00 | 00:00:00 | |
| LZ4TU-5 | 2026-08-30 11:29:14 | 44.48604 | 26.29934 | 88° | 33km/h | 6982m | 5.0m/s | -16.6°C | 3.7% | 0hPa | 0V | 00:00:00 | 00:00:00 | 00:00:00 | |
| LZ4TU-5 | 2026-08-30 11:29:10 | 44.48601 | 26.29879 | 86° | 31km/h | 6962m | 3.8m/s | -16.4°C | 4.0% | 0hPa | 0V | 00:00:00 | 00:00:00 | 00:00:00 | |
| LZ4TU-5 | 2026-08-30 11:27:57 | 44.48491 | 26.29041 | 81° | 38km/h | 6667m | 4.1m/s | -14.8°C | 21.0% | 0hPa | 0V | 00:00:00 | 00:00:00 | 00:00:00 | |
| LZ4TU-5 | 2026-08-30 11:27:53 | 44.48483 | 26.28988 | 76° | 38km/h | 6651m | 4.1m/s | -14.6°C | 22.9% | 0hPa | 0V | 00:00:00 | 00:00:00 | 00:00:00 | |
| LZ4TU-5 | 2026-08-30 11:26:39 | 44.48369 | 26.28110 | 87° | 31km/h | 6356m | 3.2m/s | -12.7°C | 18.5% | 0hPa | 0V | 00:00:00 | 00:00:00 | 00:00:00 | |
| LZ4TU-5 | 2026-08-30 11:26:35 | 44.48368 | 26.28068 | 92° | 31km/h | 6340m | 3.1m/s | -12.6°C | 19.5% | 0hPa | 0V | 00:00:00 | 00:00:00 | 00:00:00 | |
| LZ4TU-5 | 2026-08-30 11:25:24 | 44.48323 | 26.27308 | 81° | 33km/h | 6058m | 4.2m/s | -10.5°C | 33.5% | 0hPa | 0V | 00:00:00 | 00:00:00 | 00:00:00 | |
| LZ4TU-5 | 2026-08-30 11:25:19 | 44.48319 | 26.27248 | 90° | 35km/h | 6037m | 4.5m/s | -10.4°C | 38.3% | 0hPa | 0V | 00:00:00 | 00:00:00 | 00:00:00 | |
| LZ4TU-5 | 2026-08-30 11:24:12 | 44.48162 | 26.26452 | 66° | 37km/h | 5774m | 5.0m/s | -8.8°C | 73.0% | 0hPa | 0V | 00:00:00 | 00:00:00 | 00:00:00 | |
| LZ4TU-5 | 2026-08-30 11:24:07 | 44.48141 | 26.26395 | 63° | 37km/h | 5753m | 4.7m/s | -8.7°C | 72.0% | 0hPa | 0V | 00:00:00 | 00:00:00 | 00:00:00 | |
| LZ4TU-5 | 2026-08-30 11:23:01 | 44.47916 | 26.25706 | 83° | 24km/h | 5467m | 4.0m/s | -7.3°C | 50.0% | 0hPa | 0V | 00:00:00 | 00:00:00 | 00:00:00 | |
| LZ4TU-5 | 2026-08-30 11:22:56 | 44.47912 | 26.25660 | 79° | 27km/h | 5446m | 4.2m/s | -7.3°C | 43.4% | 0hPa | 0V | 00:00:00 | 00:00:00 | 00:00:00 | |
| LZ4TU-5 | 2026-08-30 11:21:50 | 44.47842 | 26.24989 | 97° | 27km/h | 5152m | 3.7m/s | -6.2°C | 65.4% | 0hPa | 0V | 00:00:00 | 00:00:00 | 00:00:00 | |
| LZ4TU-5 | 2026-08-30 11:21:45 | 44.47845 | 26.24937 | 100° | 33km/h | 5134m | 3.5m/s | -6.0°C | 0% | 0hPa | 0V | 00:00:00 | 00:00:00 | 00:00:00 | |
| LZ4TU-5 | 2026-08-30 11:20:39 | 44.47931 | 26.24214 | 105° | 29km/h | 4884m | 3.8m/s | -3.8°C | 20.2% | 0hPa | 0V | 00:00:00 | 00:00:00 | 00:00:00 | |
| LZ4TU-5 | 2026-08-30 11:20:34 | 44.47940 | 26.24163 | 108° | 31km/h | 4866m | 3.0m/s | -3.7°C | 20.5% | 0hPa | 0V | 00:00:00 | 00:00:00 | 00:00:00 | |
| LZ4TU-5 | 2026-08-30 11:19:28 | 44.48129 | 26.23675 | 123° | 26km/h | 4589m | 3.7m/s | -1.6°C | 18.0% | 0hPa | 0V | 00:00:00 | 00:00:00 | 00:00:00 | |
| LZ4TU-5 | 2026-08-30 11:19:23 | 44.48147 | 26.23642 | 141° | 27km/h | 4567m | 5.0m/s | -1.5°C | 17.6% | 0hPa | 0V | 00:00:00 | 00:00:00 | 00:00:00 | |
| LZ4TU-5 | 2026-08-30 11:17:57 | 44.48543 | 26.23028 | 134° | 20km/h | 4190m | 4.1m/s | 0.2°C | 36.2% | 0hPa | 0V | 00:00:00 | 00:00:00 | 00:00:00 | |
| LZ4TU-5 | 2026-08-30 11:17:52 | 44.48558 | 26.22999 | 128° | 22km/h | 4168m | 4.2m/s | -0.0°C | 0% | 0hPa | 0V | 00:00:00 | 00:00:00 | 00:00:00 | |
| LZ4TU-5 | 2026-08-30 11:16:51 | 44.48736 | 26.22553 | 122° | 22km/h | 3885m | 5.0m/s | 1.8°C | 0% | 0hPa | 0V | 00:00:00 | 00:00:00 | 00:00:00 | |
| LZ4TU-5 | 2026-08-30 11:16:46 | 44.48752 | 26.22515 | 115° | 24km/h | 3862m | 4.0m/s | 1.8°C | 0% | 0hPa | 0V | 00:00:00 | 00:00:00 | 00:00:00 | |
| LZ4TU-5 | 2026-08-30 11:15:44 | 44.48946 | 26.22082 | 128° | 27km/h | 3585m | 4.7m/s | 4.0°C | 0% | 0hPa | 0V | 00:00:00 | 00:00:00 | 00:00:00 | |
| LZ4TU-5 | 2026-08-30 11:15:40 | 44.48964 | 26.22050 | 122° | 29km/h | 3569m | 3.3m/s | 4.2°C | 0% | 0hPa | 0V | 00:00:00 | 00:00:00 | 00:00:00 | |
| LZ4TU-5 | 2026-08-30 11:14:39 | 44.49274 | 26.21578 | 135° | 31km/h | 3339m | 4.4m/s | 4.9°C | 0% | 0hPa | 0V | 00:00:00 | 00:00:00 | 00:00:00 | |
| LZ4TU-5 | 2026-08-30 11:14:34 | 44.49298 | 26.21541 | 139° | 27km/h | 3319m | 4.2m/s | 5.1°C | 0% | 0hPa | 0V | 00:00:00 | 00:00:00 | 00:00:00 | |
| LZ4TU-5 | 2026-08-30 11:13:32 | 44.49599 | 26.21243 | 126° | 15km/h | 3058m | 3.6m/s | 6.0°C | 0% | 0hPa | 0V | 00:00:00 | 00:00:00 | 00:00:00 | |
| LZ4TU-5 | 2026-08-30 11:13:28 | 44.49603 | 26.21224 | 123° | 11km/h | 3042m | 3.4m/s | 6.2°C | 0% | 0hPa | 0V | 00:00:00 | 00:00:00 | 00:00:00 | |
| LZ4TU-5 | 2026-08-30 11:12:27 | 44.49778 | 26.21127 | 154° | 15km/h | 2796m | 3.8m/s | 7.7°C | 0% | 0hPa | 0V | 00:00:00 | 00:00:00 | 00:00:00 | |
| LZ4TU-5 | 2026-08-30 11:12:22 | 44.49792 | 26.21112 | 137° | 20km/h | 2782m | 3.3m/s | 7.8°C | 0% | 0hPa | 0V | 00:00:00 | 00:00:00 | 00:00:00 | |
| LZ4TU-5 | 2026-08-30 11:11:20 | 44.49950 | 26.20988 | 156° | 13km/h | 2506m | 4.1m/s | 9.9°C | 0% | 0hPa | 0V | 00:00:00 | 00:00:00 | 00:00:00 | |
| LZ4TU-5 | 2026-08-30 11:11:16 | 44.49961 | 26.20980 | 141° | 11km/h | 2491m | 4.2m/s | 0°C | 0% | 0hPa | 0V | 00:00:00 | 00:00:00 | 00:00:00 | |
| LZ4TU-5 | 2026-08-30 11:10:14 | 44.50124 | 26.20897 | 163° | 20km/h | 2245m | 6.0m/s | 0°C | 0% | 0hPa | 0V | 00:00:00 | 00:00:00 | 00:00:00 | |
| LZ4TU-5 | 2026-08-30 11:10:09 | 44.50139 | 26.20889 | 182° | 11km/h | 2218m | 3.9m/s | 0°C | 0% | 0hPa | 0V | 00:00:00 | 00:00:00 | 00:00:00 | |
| LZ4TU-5 | 2026-08-30 11:09:07 | 44.50228 | 26.20881 | 176° | 13km/h | 1928m | 5.4m/s | 0°C | 0% | 0hPa | 0V | 00:00:00 | 00:00:00 | 00:00:00 | |
| LZ4TU-5 | 2026-08-30 11:09:04 | 44.50242 | 26.20884 | 200° | 11km/h | 1913m | 4.7m/s | 0°C | 0% | 0hPa | 0V | 00:00:00 | 00:00:00 | 00:00:00 | |
| LZ4TU-5 | 2026-08-30 11:08:02 | 44.50223 | 26.20963 | 327° | 11km/h | 1627m | 4.0m/s | 0°C | 0% | 0hPa | 0V | 00:00:00 | 00:00:00 | 00:00:00 |